createdAt,value
2022-11-06T00:00:43.747Z,4.12
2022-11-06T00:03:10.953Z,4.03
2022-11-06T00:06:00.693Z,4.03
2022-11-06T00:08:36.702Z,3.93
2022-11-06T00:11:14.935Z,3.96
2022-11-06T00:13:42.777Z,4.02
2022-11-06T00:16:11.381Z,4.05
2022-11-06T00:18:38.737Z,4.06
2022-11-06T00:21:17.062Z,4.03
2022-11-06T00:23:44.194Z,4.13
2022-11-06T00:26:13.858Z,4.20
2022-11-06T00:28:40.587Z,4.08
2022-11-06T00:31:08.864Z,3.98
2022-11-06T00:33:35.881Z,3.95
2022-11-06T00:36:03.950Z,4.01
2022-11-06T00:38:30.372Z,3.93
2022-11-06T00:40:56.794Z,3.84
2022-11-06T00:43:23.226Z,3.90
2022-11-06T00:45:49.641Z,3.96
2022-11-06T00:48:16.174Z,3.79
2022-11-06T00:50:42.722Z,3.70
2022-11-06T00:53:09.328Z,3.67
2022-11-06T00:55:35.735Z,3.75
2022-11-06T00:58:02.241Z,3.81
2022-11-06T01:00:28.692Z,3.70
2022-11-06T01:02:56.247Z,3.67
2022-11-06T01:05:23.929Z,3.63
2022-11-06T01:07:50.543Z,3.53
2022-11-06T01:10:17.021Z,3.49
2022-11-06T01:12:43.464Z,3.49
2022-11-06T01:15:10.226Z,3.38
2022-11-06T01:17:36.901Z,3.28
2022-11-06T01:20:04.503Z,3.32
2022-11-06T01:22:31.090Z,3.47
2022-11-06T01:24:57.627Z,3.38
2022-11-06T01:27:26.775Z,3.30
2022-11-06T01:29:54.435Z,3.43
2022-11-06T01:32:20.974Z,3.37
2022-11-06T01:34:49.747Z,3.40
2022-11-06T01:37:16.174Z,3.36
2022-11-06T01:39:42.792Z,3.38
2022-11-06T01:42:13.494Z,3.35
2022-11-06T01:44:43.231Z,3.34
2022-11-06T01:47:22.329Z,3.53
2022-11-06T01:49:50.450Z,3.46
2022-11-06T01:52:17.675Z,3.44
2022-11-06T01:54:46.596Z,3.48
2022-11-06T01:57:13.159Z,3.47
2022-11-06T01:59:42.990Z,3.36
2022-11-06T02:02:09.636Z,3.34
2022-11-06T02:04:38.983Z,3.41
2022-11-06T02:07:05.924Z,3.39
2022-11-06T02:09:34.357Z,3.35
2022-11-06T02:12:33.588Z,3.31
2022-11-06T02:15:35.824Z,3.41
2022-11-06T02:18:37.954Z,3.34
2022-11-06T02:21:26.070Z,3.36
2022-11-06T02:24:30.607Z,3.31
2022-11-06T02:27:03.133Z,3.26
2022-11-06T02:29:41.814Z,3.30
2022-11-06T02:32:12.167Z,3.27
2022-11-06T02:34:39.907Z,3.27
2022-11-06T02:37:11.503Z,3.33
2022-11-06T02:39:41.163Z,3.30
2022-11-06T02:42:09.277Z,3.23
2022-11-06T02:44:36.962Z,3.25
2022-11-06T02:47:08.024Z,3.29
2022-11-06T02:49:45.275Z,3.27
2022-11-06T02:52:16.037Z,3.27
2022-11-06T02:54:46.510Z,3.19
2022-11-06T02:57:15.773Z,3.14
2022-11-06T02:59:50.348Z,3.12
2022-11-06T03:02:40.679Z,3.09
2022-11-06T03:05:12.922Z,3.10
2022-11-06T03:07:48.672Z,3.12
2022-11-06T03:10:15.490Z,3.24
2022-11-06T03:12:54.804Z,3.21
2022-11-06T03:15:30.836Z,3.16
2022-11-06T03:18:09.512Z,3.10
2022-11-06T03:21:20.082Z,3.08
2022-11-06T03:23:53.786Z,3.11
2022-11-06T03:26:23.792Z,3.05
2022-11-06T03:28:56.328Z,3.01
2022-11-06T03:31:29.301Z,2.99
2022-11-06T03:33:59.919Z,3.10
2022-11-06T03:36:50.594Z,3.13
2022-11-06T03:39:21.872Z,3.18
2022-11-06T03:41:52.747Z,3.12
2022-11-06T03:44:22.474Z,3.14
2022-11-06T03:46:54.062Z,3.22
2022-11-06T03:49:29.083Z,3.17
2022-11-06T03:52:03.240Z,3.12
2022-11-06T03:54:34.274Z,3.12
2022-11-06T03:57:07.999Z,3.12
2022-11-06T03:59:40.070Z,3.01
2022-11-06T04:02:07.242Z,3.05
2022-11-06T04:04:46.296Z,3.06
2022-11-06T04:07:15.228Z,3.05
2022-11-06T04:10:03.423Z,3.06
2022-11-06T04:12:49.609Z,3.01
2022-11-06T04:15:18.298Z,3.07
2022-11-06T04:17:44.841Z,3.04
2022-11-06T04:20:36.213Z,3.11
2022-11-06T04:23:14.218Z,3.09
2022-11-06T04:26:16.454Z,3.09
2022-11-06T04:28:57.797Z,2.99
2022-11-06T04:31:37.853Z,2.96
2022-11-06T04:34:15.087Z,2.92
2022-11-06T04:37:01.708Z,2.97
2022-11-06T04:39:34.366Z,2.92
2022-11-06T04:42:14.473Z,2.89
2022-11-06T04:44:48.824Z,2.86
2022-11-06T04:47:22.567Z,2.85
2022-11-06T04:49:50.904Z,2.82
2022-11-06T04:52:19.701Z,2.79
2022-11-06T04:54:47.272Z,2.76
2022-11-06T04:57:13.909Z,2.97
2022-11-06T04:59:40.370Z,3.00
2022-11-06T05:02:07.052Z,2.95
2022-11-06T05:04:33.816Z,2.96
2022-11-06T05:07:00.443Z,2.94
2022-11-06T05:09:26.901Z,2.88
2022-11-06T05:11:53.420Z,2.95
2022-11-06T05:14:20.075Z,2.88
2022-11-06T05:16:46.546Z,3.04
2022-11-06T05:19:13.002Z,2.97
2022-11-06T05:21:58.240Z,2.87
2022-11-06T05:24:24.706Z,2.83
2022-11-06T05:26:56.096Z,2.74
2022-11-06T05:29:25.481Z,2.79
2022-11-06T05:31:51.939Z,2.66
2022-11-06T05:34:18.395Z,2.54
2022-11-06T05:36:44.834Z,2.45
2022-11-06T05:39:11.262Z,2.41
2022-11-06T05:41:37.767Z,2.39
2022-11-06T05:44:04.460Z,2.42
2022-11-06T05:46:49.083Z,2.46
2022-11-06T05:49:18.147Z,2.38
2022-11-06T05:51:44.625Z,2.36
2022-11-06T05:54:11.085Z,2.37
2022-11-06T05:56:38.065Z,2.44
2022-11-06T05:59:04.844Z,2.34
2022-11-06T06:01:31.495Z,2.34
2022-11-06T06:03:58.283Z,2.32
2022-11-06T06:06:24.931Z,2.23
2022-11-06T06:08:51.350Z,2.28
2022-11-06T06:11:17.864Z,2.21
2022-11-06T06:13:44.362Z,2.21
2022-11-06T06:16:10.888Z,2.18
2022-11-06T06:18:37.323Z,2.23
2022-11-06T06:21:04.182Z,2.22
2022-11-06T06:23:30.613Z,2.22
2022-11-06T06:25:57.489Z,2.16
2022-11-06T06:28:23.938Z,2.24
2022-11-06T06:30:50.406Z,2.20
2022-11-06T06:33:17.680Z,2.25
2022-11-06T06:35:44.084Z,2.32
2022-11-06T06:38:11.016Z,2.40
2022-11-06T06:40:37.752Z,2.53
2022-11-06T06:43:04.227Z,3.33
2022-11-06T06:45:31.640Z,4.21
2022-11-06T06:48:05.433Z,5.33
2022-11-06T06:50:32.358Z,5.74
2022-11-06T06:52:59.014Z,5.71
2022-11-06T06:55:25.837Z,5.44
2022-11-06T06:57:59.184Z,5.30
2022-11-06T07:00:26.381Z,4.68
2022-11-06T07:02:53.012Z,4.69
2022-11-06T07:05:19.620Z,4.45
2022-11-06T07:07:46.474Z,4.28
2022-11-06T07:10:13.274Z,4.24
2022-11-06T07:12:40.154Z,4.78
2022-11-06T07:15:08.027Z,5.03
2022-11-06T07:17:34.914Z,6.18
2022-11-06T07:20:02.152Z,6.82
2022-11-06T07:22:35.501Z,8.08
2022-11-06T07:25:04.243Z,8.42
2022-11-06T07:27:30.703Z,8.64
2022-11-06T07:29:57.325Z,9.79
2022-11-06T07:32:23.801Z,11.26
2022-11-06T07:34:50.268Z,10.17
2022-11-06T07:37:16.816Z,10.93
2022-11-06T07:39:43.515Z,11.42
2022-11-06T07:42:10.137Z,12.42
2022-11-06T07:44:36.632Z,12.71
2022-11-06T07:47:03.103Z,12.47
2022-11-06T07:49:29.529Z,13.62
2022-11-06T07:51:55.984Z,13.22
2022-11-06T07:54:22.403Z,14.92
2022-11-06T07:56:48.831Z,15.02
2022-11-06T07:59:15.275Z,14.00
2022-11-06T08:01:42.006Z,14.73
2022-11-06T08:04:08.595Z,14.52
2022-11-06T08:06:35.068Z,15.24
2022-11-06T08:09:06.045Z,14.94
2022-11-06T08:11:32.589Z,15.92
2022-11-06T08:14:02.130Z,15.85
2022-11-06T08:16:28.835Z,15.37
2022-11-06T08:18:55.624Z,14.74
2022-11-06T08:21:22.079Z,14.70
2022-11-06T08:23:48.522Z,15.19
2022-11-06T08:26:15.054Z,14.88
2022-11-06T08:28:41.618Z,15.77
2022-11-06T08:31:09.046Z,15.37
2022-11-06T08:33:36.927Z,14.90
2022-11-06T08:36:05.285Z,14.45
2022-11-06T08:38:31.855Z,14.60
2022-11-06T08:40:58.306Z,14.47
2022-11-06T08:43:26.549Z,15.73
2022-11-06T08:45:53.474Z,17.13
2022-11-06T08:48:19.975Z,16.99
2022-11-06T08:50:46.525Z,16.60
2022-11-06T08:53:13.314Z,17.08
2022-11-06T08:55:40.071Z,17.69
2022-11-06T08:58:07.363Z,17.33
2022-11-06T09:00:34.003Z,17.08
2022-11-06T09:03:02.178Z,18.28
2022-11-06T09:05:29.627Z,19.38
2022-11-06T09:07:59.768Z,20.30
2022-11-06T09:10:27.204Z,20.32
2022-11-06T09:12:53.754Z,18.88
2022-11-06T09:15:20.238Z,17.29
2022-11-06T09:17:49.441Z,16.33
2022-11-06T09:20:18.086Z,17.87
2022-11-06T09:22:45.529Z,18.73
2022-11-06T09:25:12.349Z,17.18
2022-11-06T09:27:54.472Z,17.33
2022-11-06T09:30:25.365Z,17.43
2022-11-06T09:32:56.623Z,17.48
2022-11-06T09:35:24.349Z,18.38
2022-11-06T09:37:50.930Z,17.80
2022-11-06T09:40:22.133Z,18.02
2022-11-06T09:43:08.449Z,17.98
2022-11-06T09:45:38.762Z,18.59
2022-11-06T09:48:06.862Z,19.82
2022-11-06T09:50:37.260Z,19.47
2022-11-06T09:53:15.765Z,19.80
2022-11-06T09:55:43.799Z,19.36
2022-11-06T09:58:27.795Z,19.55
2022-11-06T10:00:54.977Z,18.95
2022-11-06T10:03:47.766Z,18.99
2022-11-06T10:06:14.517Z,18.94
2022-11-06T10:08:43.858Z,18.61
2022-11-06T10:11:16.426Z,18.35
2022-11-06T10:13:54.449Z,18.39
2022-11-06T10:16:36.946Z,17.53
2022-11-06T10:19:21.899Z,18.23
2022-11-06T10:22:17.367Z,17.48
2022-11-06T10:25:02.025Z,17.90
2022-11-06T10:27:40.373Z,18.43
2022-11-06T10:30:14.296Z,18.11
2022-11-06T10:32:48.738Z,18.77
2022-11-06T10:35:52.389Z,19.46
2022-11-06T10:38:23.525Z,17.48
2022-11-06T10:40:50.484Z,17.69
2022-11-06T10:43:33.886Z,17.28
2022-11-06T10:46:23.976Z,16.46
2022-11-06T10:48:54.962Z,17.30
2022-11-06T10:51:51.954Z,18.60
2022-11-06T10:54:46.415Z,19.26
2022-11-06T10:57:31.584Z,19.40
2022-11-06T10:59:58.146Z,19.51
2022-11-06T11:02:37.333Z,18.89
2022-11-06T11:05:11.817Z,18.88
2022-11-06T11:07:38.480Z,18.15
2022-11-06T11:10:23.390Z,18.92
2022-11-06T11:12:51.122Z,19.16
2022-11-06T11:15:19.688Z,18.89
2022-11-06T11:18:30.887Z,18.83
2022-11-06T11:21:27.859Z,19.42
2022-11-06T11:24:00.456Z,19.77
2022-11-06T11:26:29.190Z,19.77
2022-11-06T11:29:01.494Z,18.39
2022-11-06T11:31:33.496Z,18.41
2022-11-06T11:34:02.968Z,19.09
2022-11-06T11:36:58.579Z,17.64
2022-11-06T11:39:28.260Z,17.65
2022-11-06T11:42:16.221Z,18.66
2022-11-06T11:44:42.656Z,18.45
2022-11-06T11:47:23.843Z,18.27
2022-11-06T11:49:50.490Z,17.18
2022-11-06T11:52:20.609Z,17.29
2022-11-06T11:54:53.689Z,18.13
2022-11-06T11:57:25.071Z,19.33
2022-11-06T11:59:56.343Z,19.92
2022-11-06T12:02:31.653Z,18.50
2022-11-06T12:05:05.512Z,18.13
2022-11-06T12:07:34.066Z,18.68
2022-11-06T12:10:02.656Z,18.54
2022-11-06T12:12:33.738Z,18.36
2022-11-06T12:15:19.301Z,18.03
2022-11-06T12:17:59.842Z,17.89
2022-11-06T12:20:46.562Z,18.68
2022-11-06T12:23:42.335Z,17.96
2022-11-06T12:26:33.565Z,18.29
2022-11-06T12:29:06.397Z,19.42
2022-11-06T12:31:37.880Z,19.70
2022-11-06T12:34:10.878Z,18.66
2022-11-06T12:36:44.309Z,17.43
2022-11-06T12:39:16.589Z,17.22
2022-11-06T12:41:46.252Z,17.53
2022-11-06T12:44:13.702Z,17.51
2022-11-06T12:47:04.748Z,17.38
2022-11-06T12:49:58.770Z,17.25
2022-11-06T12:52:47.816Z,17.00
2022-11-06T12:55:14.228Z,17.32
2022-11-06T12:58:04.444Z,17.60
2022-11-06T13:00:35.451Z,16.91
2022-11-06T13:03:23.903Z,17.24
2022-11-06T13:06:09.067Z,17.23
2022-11-06T13:08:55.367Z,17.75
2022-11-06T13:11:45.079Z,18.29
2022-11-06T13:14:16.944Z,18.22
2022-11-06T13:17:04.616Z,17.56
2022-11-06T13:19:39.423Z,17.41
2022-11-06T13:22:29.979Z,16.85
2022-11-06T13:25:05.719Z,16.29
2022-11-06T13:27:41.753Z,16.46
2022-11-06T13:30:17.792Z,16.39
2022-11-06T13:32:57.725Z,16.57
2022-11-06T13:35:24.358Z,16.79
2022-11-06T13:37:51.265Z,16.89
2022-11-06T13:40:40.361Z,16.87
2022-11-06T13:43:09.761Z,16.78
2022-11-06T13:46:28.930Z,16.87
2022-11-06T13:49:28.150Z,16.56
2022-11-06T13:51:58.781Z,16.45
2022-11-06T13:54:54.547Z,16.60
2022-11-06T13:57:26.904Z,16.13
2022-11-06T14:00:14.378Z,15.77
2022-11-06T14:03:02.617Z,15.72
2022-11-06T14:05:52.132Z,14.78
2022-11-06T14:08:28.417Z,14.35
2022-11-06T14:11:16.065Z,14.54
2022-11-06T14:13:56.717Z,14.18
2022-11-06T14:16:26.145Z,14.06
2022-11-06T14:19:01.795Z,14.14
2022-11-06T14:21:52.370Z,14.03
2022-11-06T14:24:36.559Z,13.61
2022-11-06T14:27:10.388Z,13.51
2022-11-06T14:29:36.838Z,13.43
2022-11-06T14:32:12.603Z,13.13
2022-11-06T14:34:41.144Z,12.82
2022-11-06T14:37:20.807Z,12.70
2022-11-06T14:39:56.331Z,12.83
2022-11-06T14:42:32.030Z,12.74
2022-11-06T14:45:18.977Z,12.44
2022-11-06T14:47:54.456Z,12.31
2022-11-06T14:50:20.930Z,11.96
2022-11-06T14:53:00.525Z,11.69
2022-11-06T14:55:32.690Z,11.27
2022-11-06T14:58:23.078Z,10.97
2022-11-06T15:01:11.055Z,10.82
2022-11-06T15:03:51.649Z,10.45
2022-11-06T15:06:18.036Z,10.13
2022-11-06T15:08:48.239Z,10.07
2022-11-06T15:11:30.073Z,9.88
2022-11-06T15:14:16.502Z,9.65
2022-11-06T15:16:49.666Z,9.50
2022-11-06T15:19:25.138Z,9.37
2022-11-06T15:21:53.811Z,9.27
2022-11-06T15:24:26.822Z,9.18
2022-11-06T15:26:57.616Z,9.20
2022-11-06T15:29:26.570Z,9.08
2022-11-06T15:31:59.213Z,9.03
2022-11-06T15:34:36.292Z,8.97
2022-11-06T15:37:23.656Z,8.89
2022-11-06T15:40:00.236Z,8.80
2022-11-06T15:42:37.275Z,8.65
2022-11-06T15:45:22.784Z,8.64
2022-11-06T15:47:53.311Z,8.59
2022-11-06T15:50:22.271Z,8.59
2022-11-06T15:52:49.124Z,8.54
2022-11-06T15:55:26.536Z,8.53
2022-11-06T15:57:53.733Z,8.47
2022-11-06T16:00:26.270Z,8.42
2022-11-06T16:03:00.860Z,8.36
2022-11-06T16:05:28.950Z,8.34
2022-11-06T16:07:56.800Z,8.26
2022-11-06T16:10:23.824Z,8.20
2022-11-06T16:12:51.022Z,8.13
2022-11-06T16:15:45.439Z,8.13
2022-11-06T16:18:18.050Z,7.99
2022-11-06T16:20:46.096Z,7.99
2022-11-06T16:23:15.165Z,7.96
2022-11-06T16:25:41.876Z,7.94
2022-11-06T16:28:16.355Z,7.92
2022-11-06T16:30:43.274Z,7.89
2022-11-06T16:33:28.892Z,7.88
2022-11-06T16:36:12.579Z,7.85
2022-11-06T16:38:44.341Z,7.88
2022-11-06T16:41:12.767Z,7.77
2022-11-06T16:43:39.285Z,7.74
2022-11-06T16:46:08.230Z,7.75
2022-11-06T16:48:43.089Z,7.83
2022-11-06T16:51:10.741Z,7.76
2022-11-06T16:53:51.386Z,7.76
2022-11-06T16:56:26.024Z,7.70
2022-11-06T16:59:02.138Z,7.70
2022-11-06T17:01:30.578Z,7.70
2022-11-06T17:04:01.727Z,7.72
2022-11-06T17:06:31.353Z,7.65
2022-11-06T17:09:09.041Z,7.66
2022-11-06T17:11:36.583Z,7.63
2022-11-06T17:14:14.743Z,7.64
2022-11-06T17:16:49.762Z,7.62
2022-11-06T17:19:18.157Z,7.63
2022-11-06T17:21:44.970Z,7.62
2022-11-06T17:24:35.374Z,7.60
2022-11-06T17:26:57.864Z,7.51
2022-11-06T17:29:24.425Z,7.50
2022-11-06T17:31:51.845Z,7.54
2022-11-06T17:34:18.278Z,7.54
2022-11-06T17:36:44.733Z,7.54
2022-11-06T17:39:11.214Z,7.49
2022-11-06T17:41:37.688Z,7.44
2022-11-06T17:44:07.834Z,7.49
2022-11-06T17:46:36.600Z,7.50
2022-11-06T17:49:03.828Z,7.48
2022-11-06T17:51:49.387Z,7.40
2022-11-06T17:54:21.378Z,7.39
2022-11-06T17:56:49.801Z,7.35
2022-11-06T17:59:16.500Z,7.39
2022-11-06T18:01:43.390Z,7.36
2022-11-06T18:04:10.084Z,7.29
2022-11-06T18:06:36.818Z,7.36
2022-11-06T18:09:06.621Z,7.35
2022-11-06T18:11:33.703Z,7.33
2022-11-06T18:14:00.321Z,7.34
2022-11-06T18:16:29.850Z,7.35
2022-11-06T18:18:56.496Z,7.30
2022-11-06T18:21:23.044Z,7.29
2022-11-06T18:23:50.029Z,7.34
2022-11-06T18:26:17.235Z,7.31
2022-11-06T18:28:43.756Z,7.33
2022-11-06T18:31:10.232Z,7.35
2022-11-06T18:33:36.779Z,7.34
2022-11-06T18:36:05.490Z,7.35
2022-11-06T18:38:32.449Z,7.37
2022-11-06T18:40:59.199Z,7.37
2022-11-06T18:43:25.724Z,7.36
2022-11-06T18:45:52.216Z,7.35
2022-11-06T18:48:21.732Z,7.35
2022-11-06T18:50:48.533Z,7.41
2022-11-06T18:53:15.473Z,7.42
2022-11-06T18:55:48.425Z,7.46
2022-11-06T18:58:15.200Z,7.45
2022-11-06T19:00:42.001Z,7.51
2022-11-06T19:03:08.528Z,7.55
2022-11-06T19:05:35.278Z,7.55
2022-11-06T19:08:02.808Z,7.58
2022-11-06T19:10:31.230Z,7.54
2022-11-06T19:12:59.642Z,7.58
2022-11-06T19:15:26.449Z,7.58
2022-11-06T19:17:54.525Z,7.58
2022-11-06T19:20:22.195Z,7.63
2022-11-06T19:22:50.972Z,7.68
2022-11-06T19:25:18.431Z,7.68
2022-11-06T19:27:45.486Z,7.68
2022-11-06T19:30:12.584Z,7.70
2022-11-06T19:32:40.147Z,7.70
2022-11-06T19:35:07.083Z,7.73
2022-11-06T19:37:33.887Z,7.74
2022-11-06T19:40:06.079Z,7.70
2022-11-06T19:42:33.279Z,7.72
2022-11-06T19:45:00.256Z,7.70
2022-11-06T19:47:28.155Z,7.71
2022-11-06T19:49:54.843Z,7.76
2022-11-06T19:52:41.282Z,7.72
2022-11-06T19:55:25.101Z,7.77
2022-11-06T19:57:53.800Z,7.75
2022-11-06T20:00:20.355Z,7.78
2022-11-06T20:02:50.665Z,7.76
2022-11-06T20:05:17.340Z,7.79
2022-11-06T20:07:43.851Z,7.84
2022-11-06T20:10:10.379Z,7.84
2022-11-06T20:12:36.868Z,7.78
2022-11-06T20:15:04.022Z,7.85
2022-11-06T20:17:30.597Z,7.93
2022-11-06T20:19:57.070Z,7.98
2022-11-06T20:22:25.033Z,8.04
2022-11-06T20:24:51.561Z,8.13
2022-11-06T20:27:18.199Z,8.17
2022-11-06T20:29:45.194Z,8.21
2022-11-06T20:32:17.648Z,8.23
2022-11-06T20:34:51.590Z,8.27
2022-11-06T20:37:18.057Z,8.33
2022-11-06T20:39:46.279Z,8.37
2022-11-06T20:42:12.706Z,8.40
2022-11-06T20:44:39.326Z,8.44
2022-11-06T20:47:05.745Z,8.44
2022-11-06T20:49:32.205Z,8.47
2022-11-06T20:52:15.032Z,8.47
2022-11-06T20:54:47.452Z,8.46
2022-11-06T20:57:15.863Z,8.40
2022-11-06T20:59:42.385Z,8.42
2022-11-06T21:02:11.286Z,8.49
2022-11-06T21:04:37.886Z,8.49
2022-11-06T21:07:05.414Z,8.50
2022-11-06T21:09:31.833Z,8.42
2022-11-06T21:11:58.342Z,8.47
2022-11-06T21:14:25.009Z,8.50
2022-11-06T21:16:52.536Z,8.51
2022-11-06T21:19:19.082Z,8.53
2022-11-06T21:21:45.432Z,8.54
2022-11-06T21:24:12.176Z,8.49
2022-11-06T21:26:38.755Z,8.55
2022-11-06T21:29:10.443Z,8.52
2022-11-06T21:31:41.379Z,8.52
2022-11-06T21:34:11.706Z,8.52
2022-11-06T21:36:38.340Z,8.50
2022-11-06T21:39:15.682Z,8.53
2022-11-06T21:41:42.193Z,8.52
2022-11-06T21:44:12.839Z,8.53
2022-11-06T21:46:44.307Z,8.45
2022-11-06T21:49:11.800Z,8.34
2022-11-06T21:51:38.161Z,8.42
2022-11-06T21:54:23.502Z,8.43
2022-11-06T21:56:50.624Z,8.42
2022-11-06T21:59:18.903Z,8.47
2022-11-06T22:01:45.499Z,8.44
2022-11-06T22:04:12.609Z,8.43
2022-11-06T22:06:41.912Z,8.46
2022-11-06T22:09:09.167Z,8.44
2022-11-06T22:11:38.060Z,8.39
2022-11-06T22:14:08.170Z,8.46
2022-11-06T22:16:37.040Z,8.49
2022-11-06T22:19:06.711Z,8.46
2022-11-06T22:21:33.987Z,8.47
2022-11-06T22:24:00.394Z,8.55
2022-11-06T22:26:29.992Z,8.56
2022-11-06T22:28:58.645Z,8.57
2022-11-06T22:31:25.613Z,8.64
2022-11-06T22:33:53.852Z,8.71
2022-11-06T22:36:20.556Z,8.72
2022-11-06T22:38:46.998Z,8.78
2022-11-06T22:41:16.066Z,8.81
2022-11-06T22:43:42.605Z,8.92
2022-11-06T22:47:01.295Z,9.05
2022-11-06T22:49:28.152Z,9.05
2022-11-06T22:51:54.782Z,9.08
2022-11-06T22:54:21.371Z,9.13
2022-11-06T22:56:54.843Z,9.13
2022-11-06T22:59:21.601Z,9.17
2022-11-06T23:01:48.063Z,9.15
2022-11-06T23:04:15.020Z,9.11
2022-11-06T23:06:42.597Z,9.18
2022-11-06T23:09:09.022Z,9.17
2022-11-06T23:11:35.466Z,9.19
2022-11-06T23:14:07.448Z,9.16
2022-11-06T23:16:53.900Z,9.13
2022-11-06T23:19:24.560Z,9.07
2022-11-06T23:21:50.945Z,9.06
2022-11-06T23:24:17.476Z,9.09
2022-11-06T23:26:44.287Z,9.10
2022-11-06T23:29:10.935Z,9.04
2022-11-06T23:31:37.342Z,9.08
2022-11-06T23:34:03.903Z,9.07
2022-11-06T23:36:30.333Z,9.02
2022-11-06T23:38:56.662Z,8.95
2022-11-06T23:41:41.856Z,9.01
2022-11-06T23:44:30.329Z,9.00
2022-11-06T23:46:57.528Z,8.97
2022-11-06T23:49:24.256Z,8.97
2022-11-06T23:51:50.721Z,8.95
2022-11-06T23:54:18.469Z,8.92
2022-11-06T23:56:44.861Z,8.95
2022-11-06T23:59:11.809Z,9.01
